sensor_id;sensor_type;location;lat;lon;timestamp;temperature;humidity
32728;DHT22;55292;51.844;19.246;2023-11-19T00:03:28;0.60;99.90
32728;DHT22;55292;51.844;19.246;2023-11-19T00:08:31;0.70;99.90
32728;DHT22;55292;51.844;19.246;2023-11-19T00:13:34;0.70;99.90
32728;DHT22;55292;51.844;19.246;2023-11-19T00:18:37;0.60;99.90
32728;DHT22;55292;51.844;19.246;2023-11-19T00:23:40;0.60;99.90
32728;DHT22;55292;51.844;19.246;2023-11-19T00:28:43;0.70;99.90
32728;DHT22;55292;51.844;19.246;2023-11-19T00:33:46;0.80;99.90
32728;DHT22;55292;51.844;19.246;2023-11-19T00:38:52;0.80;99.90
32728;DHT22;55292;51.844;19.246;2023-11-19T00:43:55;0.90;99.90
32728;DHT22;55292;51.844;19.246;2023-11-19T00:48:58;0.90;99.90
32728;DHT22;55292;51.844;19.246;2023-11-19T00:54:02;0.90;99.90
32728;DHT22;55292;51.844;19.246;2023-11-19T00:59:05;1.50;99.90
32728;DHT22;55292;51.844;19.246;2023-11-19T01:04:08;1.00;99.90
32728;DHT22;55292;51.844;19.246;2023-11-19T01:09:11;0.90;99.90
32728;DHT22;55292;51.844;19.246;2023-11-19T01:14:14;0.80;99.90
32728;DHT22;55292;51.844;19.246;2023-11-19T01:19:17;0.90;99.90
32728;DHT22;55292;51.844;19.246;2023-11-19T01:24:20;0.90;99.90
32728;DHT22;55292;51.844;19.246;2023-11-19T01:29:23;0.80;99.90
32728;DHT22;55292;51.844;19.246;2023-11-19T01:34:26;0.70;99.90
32728;DHT22;55292;51.844;19.246;2023-11-19T01:39:29;0.70;99.90
32728;DHT22;55292;51.844;19.246;2023-11-19T01:44:31;0.70;99.90
32728;DHT22;55292;51.844;19.246;2023-11-19T01:49:34;0.70;99.90
32728;DHT22;55292;51.844;19.246;2023-11-19T01:54:37;0.70;99.90
32728;DHT22;55292;51.844;19.246;2023-11-19T01:59:40;0.80;99.90
32728;DHT22;55292;51.844;19.246;2023-11-19T02:04:44;0.90;99.90
32728;DHT22;55292;51.844;19.246;2023-11-19T02:09:47;0.90;99.90
32728;DHT22;55292;51.844;19.246;2023-11-19T02:14:50;1.00;99.90
32728;DHT22;55292;51.844;19.246;2023-11-19T02:19:53;1.00;99.90
32728;DHT22;55292;51.844;19.246;2023-11-19T02:25:00;1.00;99.90
32728;DHT22;55292;51.844;19.246;2023-11-19T02:30:03;1.00;99.90
32728;DHT22;55292;51.844;19.246;2023-11-19T02:35:08;1.00;99.90
32728;DHT22;55292;51.844;19.246;2023-11-19T02:40:11;1.00;99.90
32728;DHT22;55292;51.844;19.246;2023-11-19T02:45:16;1.00;99.90
32728;DHT22;55292;51.844;19.246;2023-11-19T02:50:20;1.10;99.90
32728;DHT22;55292;51.844;19.246;2023-11-19T02:55:28;1.00;99.90
32728;DHT22;55292;51.844;19.246;2023-11-19T03:00:33;1.10;99.90
32728;DHT22;55292;51.844;19.246;2023-11-19T03:05:43;1.00;99.90
32728;DHT22;55292;51.844;19.246;2023-11-19T03:10:47;0.90;99.90
32728;DHT22;55292;51.844;19.246;2023-11-19T03:15:50;1.00;99.90
32728;DHT22;55292;51.844;19.246;2023-11-19T03:20:54;1.00;99.90
32728;DHT22;55292;51.844;19.246;2023-11-19T03:25:56;1.00;99.90
32728;DHT22;55292;51.844;19.246;2023-11-19T03:30:59;0.80;99.90
32728;DHT22;55292;51.844;19.246;2023-11-19T03:36:02;1.00;99.90
32728;DHT22;55292;51.844;19.246;2023-11-19T03:41:14;0.90;99.90
32728;DHT22;55292;51.844;19.246;2023-11-19T03:46:19;0.80;99.90
32728;DHT22;55292;51.844;19.246;2023-11-19T03:51:22;0.70;99.90
32728;DHT22;55292;51.844;19.246;2023-11-19T03:56:25;0.70;99.90
32728;DHT22;55292;51.844;19.246;2023-11-19T04:01:28;0.70;99.90
32728;DHT22;55292;51.844;19.246;2023-11-19T04:06:31;0.80;99.90
32728;DHT22;55292;51.844;19.246;2023-11-19T04:11:36;0.90;99.90
32728;DHT22;55292;51.844;19.246;2023-11-19T04:16:39;1.00;99.90
32728;DHT22;55292;51.844;19.246;2023-11-19T04:21:42;1.00;99.90
32728;DHT22;55292;51.844;19.246;2023-11-19T04:26:45;1.10;99.90
32728;DHT22;55292;51.844;19.246;2023-11-19T04:31:49;1.10;99.90
32728;DHT22;55292;51.844;19.246;2023-11-19T04:36:51;1.10;99.90
32728;DHT22;55292;51.844;19.246;2023-11-19T04:41:54;1.10;99.90
32728;DHT22;55292;51.844;19.246;2023-11-19T04:46:57;1.10;99.90
32728;DHT22;55292;51.844;19.246;2023-11-19T04:52:00;1.10;99.90
32728;DHT22;55292;51.844;19.246;2023-11-19T04:57:04;1.10;99.90
32728;DHT22;55292;51.844;19.246;2023-11-19T05:02:06;1.10;99.90
32728;DHT22;55292;51.844;19.246;2023-11-19T05:07:10;1.10;99.90
32728;DHT22;55292;51.844;19.246;2023-11-19T05:12:13;1.10;99.90
32728;DHT22;55292;51.844;19.246;2023-11-19T05:17:19;1.20;99.90
32728;DHT22;55292;51.844;19.246;2023-11-19T05:22:22;1.20;99.90
32728;DHT22;55292;51.844;19.246;2023-11-19T05:27:25;1.20;99.90
32728;DHT22;55292;51.844;19.246;2023-11-19T05:32:29;1.20;99.90
32728;DHT22;55292;51.844;19.246;2023-11-19T05:37:32;1.00;99.90
32728;DHT22;55292;51.844;19.246;2023-11-19T05:42:37;1.10;99.90
32728;DHT22;55292;51.844;19.246;2023-11-19T05:47:41;1.00;99.90
32728;DHT22;55292;51.844;19.246;2023-11-19T05:52:43;1.10;99.90
32728;DHT22;55292;51.844;19.246;2023-11-19T05:57:46;1.00;99.90
32728;DHT22;55292;51.844;19.246;2023-11-19T06:02:49;1.10;99.90
32728;DHT22;55292;51.844;19.246;2023-11-19T06:07:52;0.90;99.90
32728;DHT22;55292;51.844;19.246;2023-11-19T06:12:55;1.00;99.90
32728;DHT22;55292;51.844;19.246;2023-11-19T06:17:59;1.00;99.90
32728;DHT22;55292;51.844;19.246;2023-11-19T06:23:04;0.90;99.90
32728;DHT22;55292;51.844;19.246;2023-11-19T06:28:07;1.00;99.90
32728;DHT22;55292;51.844;19.246;2023-11-19T06:33:12;1.00;99.90
32728;DHT22;55292;51.844;19.246;2023-11-19T06:38:15;0.90;99.90
32728;DHT22;55292;51.844;19.246;2023-11-19T06:43:18;0.90;99.90
32728;DHT22;55292;51.844;19.246;2023-11-19T06:48:21;0.80;99.90
32728;DHT22;55292;51.844;19.246;2023-11-19T06:53:24;0.70;99.90
32728;DHT22;55292;51.844;19.246;2023-11-19T06:58:27;0.50;99.90
32728;DHT22;55292;51.844;19.246;2023-11-19T07:03:30;-1.10;99.90
32728;DHT22;55292;51.844;19.246;2023-11-19T07:08:33;0.30;99.90
32728;DHT22;55292;51.844;19.246;2023-11-19T07:13:36;0.30;99.90
32728;DHT22;55292;51.844;19.246;2023-11-19T07:18:39;0.50;99.90
32728;DHT22;55292;51.844;19.246;2023-11-19T07:23:42;0.70;99.90
32728;DHT22;55292;51.844;19.246;2023-11-19T07:28:45;1.00;99.90
32728;DHT22;55292;51.844;19.246;2023-11-19T07:33:48;1.30;99.90
32728;DHT22;55292;51.844;19.246;2023-11-19T07:38:51;1.50;99.90
32728;DHT22;55292;51.844;19.246;2023-11-19T07:43:56;1.70;99.90
32728;DHT22;55292;51.844;19.246;2023-11-19T07:48:59;1.90;99.90
32728;DHT22;55292;51.844;19.246;2023-11-19T07:54:02;2.10;99.90
32728;DHT22;55292;51.844;19.246;2023-11-19T07:59:06;2.20;99.90
32728;DHT22;55292;51.844;19.246;2023-11-19T08:04:12;2.50;99.90
32728;DHT22;55292;51.844;19.246;2023-11-19T08:09:15;2.40;99.90
32728;DHT22;55292;51.844;19.246;2023-11-19T08:14:18;2.40;99.90
32728;DHT22;55292;51.844;19.246;2023-11-19T08:19:21;2.50;99.90
32728;DHT22;55292;51.844;19.246;2023-11-19T08:24:24;2.60;99.90
32728;DHT22;55292;51.844;19.246;2023-11-19T08:29:27;2.60;99.90
32728;DHT22;55292;51.844;19.246;2023-11-19T08:34:30;2.60;99.90
32728;DHT22;55292;51.844;19.246;2023-11-19T08:39:33;2.70;99.90
32728;DHT22;55292;51.844;19.246;2023-11-19T08:44:37;2.80;99.90
32728;DHT22;55292;51.844;19.246;2023-11-19T08:49:40;2.60;99.90
32728;DHT22;55292;51.844;19.246;2023-11-19T08:54:43;2.80;99.90
32728;DHT22;55292;51.844;19.246;2023-11-19T08:59:46;2.80;99.90
32728;DHT22;55292;51.844;19.246;2023-11-19T09:04:49;2.80;99.90
32728;DHT22;55292;51.844;19.246;2023-11-19T09:09:55;2.70;99.90
32728;DHT22;55292;51.844;19.246;2023-11-19T09:14:58;2.60;99.90
32728;DHT22;55292;51.844;19.246;2023-11-19T09:20:01;2.70;99.90
32728;DHT22;55292;51.844;19.246;2023-11-19T09:25:04;2.60;99.90
32728;DHT22;55292;51.844;19.246;2023-11-19T09:30:08;2.70;99.90
32728;DHT22;55292;51.844;19.246;2023-11-19T09:35:11;2.70;99.90
32728;DHT22;55292;51.844;19.246;2023-11-19T09:40:16;2.90;99.90
32728;DHT22;55292;51.844;19.246;2023-11-19T09:45:21;2.90;99.90
32728;DHT22;55292;51.844;19.246;2023-11-19T09:50:27;3.00;99.90
32728;DHT22;55292;51.844;19.246;2023-11-19T09:55:30;2.90;99.90
32728;DHT22;55292;51.844;19.246;2023-11-19T10:00:34;3.00;99.90
32728;DHT22;55292;51.844;19.246;2023-11-19T10:05:36;3.10;99.90
32728;DHT22;55292;51.844;19.246;2023-11-19T10:10:41;3.60;99.90
32728;DHT22;55292;51.844;19.246;2023-11-19T10:15:44;3.40;99.90
32728;DHT22;55292;51.844;19.246;2023-11-19T10:20:47;3.60;99.90
32728;DHT22;55292;51.844;19.246;2023-11-19T10:25:53;3.70;99.90
32728;DHT22;55292;51.844;19.246;2023-11-19T10:30:56;4.00;99.90
32728;DHT22;55292;51.844;19.246;2023-11-19T10:35:59;4.20;99.90
32728;DHT22;55292;51.844;19.246;2023-11-19T10:41:04;4.70;99.90
32728;DHT22;55292;51.844;19.246;2023-11-19T10:46:12;4.90;99.90
32728;DHT22;55292;51.844;19.246;2023-11-19T10:51:19;5.00;99.90
32728;DHT22;55292;51.844;19.246;2023-11-19T10:56:30;5.20;99.90
32728;DHT22;55292;51.844;19.246;2023-11-19T11:01:45;4.90;99.90
32728;DHT22;55292;51.844;19.246;2023-11-19T11:06:51;4.80;99.90
32728;DHT22;55292;51.844;19.246;2023-11-19T11:11:54;4.50;99.90
32728;DHT22;55292;51.844;19.246;2023-11-19T11:17:01;4.50;99.90
32728;DHT22;55292;51.844;19.246;2023-11-19T11:22:06;4.60;99.90
32728;DHT22;55292;51.844;19.246;2023-11-19T11:38:21;4.20;99.90
32728;DHT22;55292;51.844;19.246;2023-11-19T11:43:45;3.90;99.90
32728;DHT22;55292;51.844;19.246;2023-11-19T11:48:50;3.70;99.90
32728;DHT22;55292;51.844;19.246;2023-11-19T11:53:54;3.40;99.90
32728;DHT22;55292;51.844;19.246;2023-11-19T11:59:01;3.00;99.90
32728;DHT22;55292;51.844;19.246;2023-11-19T12:04:05;2.60;99.90
32728;DHT22;55292;51.844;19.246;2023-11-19T12:09:09;2.30;99.90
32728;DHT22;55292;51.844;19.246;2023-11-19T12:14:13;2.00;99.90
32728;DHT22;55292;51.844;19.246;2023-11-19T12:19:16;1.90;99.90
32728;DHT22;55292;51.844;19.246;2023-11-19T12:24:21;2.00;99.90
32728;DHT22;55292;51.844;19.246;2023-11-19T12:29:42;1.90;99.90
32728;DHT22;55292;51.844;19.246;2023-11-19T12:34:47;2.00;99.90
32728;DHT22;55292;51.844;19.246;2023-11-19T12:39:50;2.00;99.90
32728;DHT22;55292;51.844;19.246;2023-11-19T12:44:55;1.90;99.90
32728;DHT22;55292;51.844;19.246;2023-11-19T12:49:59;2.00;99.90
32728;DHT22;55292;51.844;19.246;2023-11-19T12:55:04;2.00;99.90
32728;DHT22;55292;51.844;19.246;2023-11-19T13:00:19;2.00;99.90
32728;DHT22;55292;51.844;19.246;2023-11-19T13:05:32;2.00;99.90
32728;DHT22;55292;51.844;19.246;2023-11-19T13:10:52;2.00;99.90
32728;DHT22;55292;51.844;19.246;2023-11-19T13:16:04;2.00;99.90
32728;DHT22;55292;51.844;19.246;2023-11-19T13:21:11;1.80;99.90
32728;DHT22;55292;51.844;19.246;2023-11-19T13:26:14;1.80;99.90
32728;DHT22;55292;51.844;19.246;2023-11-19T13:31:17;1.90;99.90
32728;DHT22;55292;51.844;19.246;2023-11-19T13:36:21;1.90;99.90
32728;DHT22;55292;51.844;19.246;2023-11-19T13:41:27;1.90;99.90
32728;DHT22;55292;51.844;19.246;2023-11-19T13:46:33;1.70;99.90
32728;DHT22;55292;51.844;19.246;2023-11-19T13:51:36;1.70;99.90
32728;DHT22;55292;51.844;19.246;2023-11-19T13:56:42;1.70;99.90
32728;DHT22;55292;51.844;19.246;2023-11-19T14:01:48;1.80;99.90
32728;DHT22;55292;51.844;19.246;2023-11-19T14:06:51;1.70;99.90
32728;DHT22;55292;51.844;19.246;2023-11-19T14:11:54;1.70;99.90
32728;DHT22;55292;51.844;19.246;2023-11-19T14:16:58;1.70;99.90
32728;DHT22;55292;51.844;19.246;2023-11-19T14:22:05;1.70;99.90
32728;DHT22;55292;51.844;19.246;2023-11-19T14:27:09;1.70;99.90
32728;DHT22;55292;51.844;19.246;2023-11-19T14:32:14;1.60;99.90
32728;DHT22;55292;51.844;19.246;2023-11-19T14:37:18;1.60;99.90
32728;DHT22;55292;51.844;19.246;2023-11-19T14:42:21;1.60;99.90
32728;DHT22;55292;51.844;19.246;2023-11-19T14:47:25;1.70;99.90
32728;DHT22;55292;51.844;19.246;2023-11-19T14:52:28;1.60;99.90
32728;DHT22;55292;51.844;19.246;2023-11-19T14:57:31;1.60;99.90
32728;DHT22;55292;51.844;19.246;2023-11-19T15:02:34;1.50;99.90
32728;DHT22;55292;51.844;19.246;2023-11-19T15:07:37;1.60;99.90
32728;DHT22;55292;51.844;19.246;2023-11-19T15:12:45;1.60;99.90
32728;DHT22;55292;51.844;19.246;2023-11-19T15:17:48;1.60;99.90
32728;DHT22;55292;51.844;19.246;2023-11-19T15:22:51;1.70;99.90
32728;DHT22;55292;51.844;19.246;2023-11-19T15:27:54;1.70;99.90
32728;DHT22;55292;51.844;19.246;2023-11-19T15:32:57;1.70;99.90
32728;DHT22;55292;51.844;19.246;2023-11-19T15:38:01;1.80;99.90
32728;DHT22;55292;51.844;19.246;2023-11-19T15:43:04;1.80;99.90
32728;DHT22;55292;51.844;19.246;2023-11-19T15:48:11;1.80;99.90
32728;DHT22;55292;51.844;19.246;2023-11-19T15:53:17;1.80;99.90
32728;DHT22;55292;51.844;19.246;2023-11-19T15:58:21;1.80;99.90
32728;DHT22;55292;51.844;19.246;2023-11-19T16:03:26;1.80;99.90
32728;DHT22;55292;51.844;19.246;2023-11-19T16:08:29;1.80;99.90
32728;DHT22;55292;51.844;19.246;2023-11-19T16:13:37;-0.90;99.90
32728;DHT22;55292;51.844;19.246;2023-11-19T16:18:40;1.90;99.90
32728;DHT22;55292;51.844;19.246;2023-11-19T16:23:44;1.90;99.90
32728;DHT22;55292;51.844;19.246;2023-11-19T16:28:51;1.90;99.90
32728;DHT22;55292;51.844;19.246;2023-11-19T16:33:56;2.00;99.90
32728;DHT22;55292;51.844;19.246;2023-11-19T16:38:59;2.00;99.90
32728;DHT22;55292;51.844;19.246;2023-11-19T16:44:05;2.10;99.90
32728;DHT22;55292;51.844;19.246;2023-11-19T16:49:10;2.10;99.90
32728;DHT22;55292;51.844;19.246;2023-11-19T16:54:13;2.20;99.90
32728;DHT22;55292;51.844;19.246;2023-11-19T16:59:16;2.20;99.90
32728;DHT22;55292;51.844;19.246;2023-11-19T17:04:20;2.20;99.90
32728;DHT22;55292;51.844;19.246;2023-11-19T17:09:23;2.30;99.90
32728;DHT22;55292;51.844;19.246;2023-11-19T17:14:26;2.30;99.90
32728;DHT22;55292;51.844;19.246;2023-11-19T17:19:32;2.40;99.90
32728;DHT22;55292;51.844;19.246;2023-11-19T17:24:35;2.40;99.90
32728;DHT22;55292;51.844;19.246;2023-11-19T17:29:39;2.40;99.90
32728;DHT22;55292;51.844;19.246;2023-11-19T17:34:42;2.50;99.90
32728;DHT22;55292;51.844;19.246;2023-11-19T17:39:47;2.50;99.90
32728;DHT22;55292;51.844;19.246;2023-11-19T17:44:50;2.60;99.90
32728;DHT22;55292;51.844;19.246;2023-11-19T17:49:55;2.50;99.90
32728;DHT22;55292;51.844;19.246;2023-11-19T17:54:58;2.60;99.90
32728;DHT22;55292;51.844;19.246;2023-11-19T18:00:04;2.70;99.90
32728;DHT22;55292;51.844;19.246;2023-11-19T18:05:13;2.80;99.90
32728;DHT22;55292;51.844;19.246;2023-11-19T18:10:16;2.90;99.90
32728;DHT22;55292;51.844;19.246;2023-11-19T18:15:20;2.80;99.90
32728;DHT22;55292;51.844;19.246;2023-11-19T18:20:23;2.80;99.90
32728;DHT22;55292;51.844;19.246;2023-11-19T18:25:27;2.80;99.90
32728;DHT22;55292;51.844;19.246;2023-11-19T18:30:30;2.80;99.90
32728;DHT22;55292;51.844;19.246;2023-11-19T18:35:33;2.80;99.90
32728;DHT22;55292;51.844;19.246;2023-11-19T18:40:37;2.80;99.90
32728;DHT22;55292;51.844;19.246;2023-11-19T18:45:42;2.80;99.90
32728;DHT22;55292;51.844;19.246;2023-11-19T18:50:45;3.00;99.90
32728;DHT22;55292;51.844;19.246;2023-11-19T18:55:51;3.00;99.90
32728;DHT22;55292;51.844;19.246;2023-11-19T19:00:55;3.00;99.90
32728;DHT22;55292;51.844;19.246;2023-11-19T19:05:59;3.10;99.90
32728;DHT22;55292;51.844;19.246;2023-11-19T19:11:04;3.20;99.90
32728;DHT22;55292;51.844;19.246;2023-11-19T19:16:08;3.40;99.90
32728;DHT22;55292;51.844;19.246;2023-11-19T19:21:11;3.50;99.90
32728;DHT22;55292;51.844;19.246;2023-11-19T19:26:17;3.70;99.90
32728;DHT22;55292;51.844;19.246;2023-11-19T19:31:21;3.70;99.90
32728;DHT22;55292;51.844;19.246;2023-11-19T19:36:28;3.80;99.90
32728;DHT22;55292;51.844;19.246;2023-11-19T19:41:32;4.00;99.90
32728;DHT22;55292;51.844;19.246;2023-11-19T19:46:36;4.20;99.90
32728;DHT22;55292;51.844;19.246;2023-11-19T19:51:40;4.20;99.90
32728;DHT22;55292;51.844;19.246;2023-11-19T19:56:43;4.30;99.90
32728;DHT22;55292;51.844;19.246;2023-11-19T20:01:47;4.30;99.90
32728;DHT22;55292;51.844;19.246;2023-11-19T20:06:55;4.30;99.90
32728;DHT22;55292;51.844;19.246;2023-11-19T20:12:00;4.30;99.90
32728;DHT22;55292;51.844;19.246;2023-11-19T20:17:05;4.40;99.90
32728;DHT22;55292;51.844;19.246;2023-11-19T20:22:16;4.60;99.90
32728;DHT22;55292;51.844;19.246;2023-11-19T20:27:19;4.70;99.90
32728;DHT22;55292;51.844;19.246;2023-11-19T20:32:24;7.90;99.90
32728;DHT22;55292;51.844;19.246;2023-11-19T20:37:28;5.20;99.90
32728;DHT22;55292;51.844;19.246;2023-11-19T20:42:36;5.30;99.90
32728;DHT22;55292;51.844;19.246;2023-11-19T20:47:45;5.50;99.90
32728;DHT22;55292;51.844;19.246;2023-11-19T20:52:52;5.80;99.90
32728;DHT22;55292;51.844;19.246;2023-11-19T20:57:56;6.00;99.90
32728;DHT22;55292;51.844;19.246;2023-11-19T21:03:00;6.20;99.90
32728;DHT22;55292;51.844;19.246;2023-11-19T21:08:03;6.50;99.90
32728;DHT22;55292;51.844;19.246;2023-11-19T21:13:07;6.60;99.90
32728;DHT22;55292;51.844;19.246;2023-11-19T21:18:10;6.80;99.90
32728;DHT22;55292;51.844;19.246;2023-11-19T21:23:14;7.00;99.90
32728;DHT22;55292;51.844;19.246;2023-11-19T21:28:18;7.10;99.90
32728;DHT22;55292;51.844;19.246;2023-11-19T21:33:21;7.20;99.90
32728;DHT22;55292;51.844;19.246;2023-11-19T21:38:26;7.30;99.90
32728;DHT22;55292;51.844;19.246;2023-11-19T21:43:30;7.40;99.90
32728;DHT22;55292;51.844;19.246;2023-11-19T21:48:33;7.50;99.90
32728;DHT22;55292;51.844;19.246;2023-11-19T21:53:36;7.50;99.90
32728;DHT22;55292;51.844;19.246;2023-11-19T21:58:40;7.60;99.90
32728;DHT22;55292;51.844;19.246;2023-11-19T22:03:43;7.70;99.90
32728;DHT22;55292;51.844;19.246;2023-11-19T22:08:46;7.70;99.90
32728;DHT22;55292;51.844;19.246;2023-11-19T22:13:50;7.70;99.90
32728;DHT22;55292;51.844;19.246;2023-11-19T22:18:54;7.70;99.90
32728;DHT22;55292;51.844;19.246;2023-11-19T22:23:58;7.70;99.90
32728;DHT22;55292;51.844;19.246;2023-11-19T22:29:01;7.70;99.90
32728;DHT22;55292;51.844;19.246;2023-11-19T22:34:06;7.80;99.90
32728;DHT22;55292;51.844;19.246;2023-11-19T22:39:12;7.80;99.90
32728;DHT22;55292;51.844;19.246;2023-11-19T22:44:14;7.80;99.90
32728;DHT22;55292;51.844;19.246;2023-11-19T22:49:18;7.90;99.90
32728;DHT22;55292;51.844;19.246;2023-11-19T22:54:21;7.90;99.90
32728;DHT22;55292;51.844;19.246;2023-11-19T22:59:25;8.00;99.90
32728;DHT22;55292;51.844;19.246;2023-11-19T23:04:28;7.90;99.90
32728;DHT22;55292;51.844;19.246;2023-11-19T23:09:32;7.90;99.90
32728;DHT22;55292;51.844;19.246;2023-11-19T23:14:35;7.90;99.90
32728;DHT22;55292;51.844;19.246;2023-11-19T23:19:38;7.90;99.90
32728;DHT22;55292;51.844;19.246;2023-11-19T23:24:40;7.90;99.90
32728;DHT22;55292;51.844;19.246;2023-11-19T23:29:43;8.00;99.90
32728;DHT22;55292;51.844;19.246;2023-11-19T23:34:46;8.00;99.90
32728;DHT22;55292;51.844;19.246;2023-11-19T23:39:49;8.00;99.90
32728;DHT22;55292;51.844;19.246;2023-11-19T23:44:52;8.00;99.90
32728;DHT22;55292;51.844;19.246;2023-11-19T23:49:55;8.00;99.90
32728;DHT22;55292;51.844;19.246;2023-11-19T23:54:58;8.10;99.90
